Flight Track Log - Related Links

Times and Time Zones

All times are in EDT time to prevent confusion due to time zone crossing. See the N589H flight status page for this flight to view local times or setup timezone preferences in your user account.

Time Position Orientation Groundspeed Altitude Reporting Facility
EDT Latitude Longitude Course Direction KTS MPH feet Rate Location/Type
Fri 08:43:17 AM 27.9000 -82.6833 254° West 106 122 900  Level Tampa TRACON
Fri 08:44:29 AM 27.8833 -82.7500 254° West 198 228 2,000 767 Climbing Tampa TRACON
Fri 08:45:30 AM 27.9167 -82.8167 300° West 261 300 2,600 992 Climbing Tampa TRACON
Fri 08:46:30 AM 27.9833 -82.8000 12° North 258 297 4,000 1,709 Climbing Tampa TRACON
Fri 08:48:29 AM 28.1144 -82.8267 350° North 247 284 7,700 2,078 Climbing Jacksonville Center
Fri 08:49:29 AM 28.1769 -82.8267 360° North 231 266 10,200 1,650 Climbing Jacksonville Center
Fri 08:50:29 AM 28.2458 -82.8314 357° North 226 260 11,000 450 Climbing Jacksonville Center
Fri 08:51:29 AM 28.3253 -82.8503 348° North 261 300 11,100 1,000 Climbing Jacksonville Center
Fri 08:52:29 AM 28.3942 -82.8972 329° Northwest 280 322 13,000 1,950 Climbing Jacksonville Center
Fri 08:53:29 AM 28.4567 -82.9350 332° Northwest 270 311 15,000 2,000 Climbing Jacksonville Center
Fri 08:54:29 AM 28.5150 -82.9731 330° Northwest 254 292 17,000 1,950 Climbing Jacksonville Center
Fri 08:55:29 AM 28.5736 -83.0083 332° Northwest 243 280 18,900 1,950 Climbing Jacksonville Center
Fri 08:56:29 AM 28.6339 -83.0439 333° Northwest 243 280 20,900 2,000 Climbing Jacksonville Center
Fri 08:57:29 AM 28.6756 -83.0961 312° West 224 258 22,900 2,000 Climbing Jacksonville Center
Fri 08:58:29 AM 28.7006 -83.1553 296° West 219 252 24,900 1,350 Climbing Jacksonville Center
Fri 08:59:29 AM 28.7275 -83.2242 294° West 219 252 25,600 550 Climbing Jacksonville Center
Fri 09:00:29 AM 28.7608 -83.3047 295° West 240 276 26,000 200 Climbing Jacksonville Center
Fri 09:01:29 AM 28.7981 -83.3950 295° West 281 323 26,000  Level Jacksonville Center
Fri 09:02:29 AM 28.8394 -83.4900 296° West 317 365 26,000  Level Jacksonville Center
Fri 09:03:29 AM 28.8806 -83.5872 296° West 332 382 26,000  Level Jacksonville Center
Fri 09:04:29 AM 28.9197 -83.6872 294° West 339 390 26,000  Level Jacksonville Center
Fri 09:05:29 AM 28.9628 -83.7850 297° West 339 390 26,000  Level Jacksonville Center
Fri 09:06:29 AM 29.0017 -83.8850 294° West 339 390 26,000  Level Jacksonville Center
Fri 09:07:29 AM 29.0428 -83.9828 296° West 339 390 26,000  Level Jacksonville Center
Fri 09:08:29 AM 29.0814 -84.0831 294° West 339 390 26,000  Level Jacksonville Center
Fri 09:09:29 AM 29.1203 -84.1786 295° West 339 390 26,000  Level Jacksonville Center
Fri 09:10:29 AM 29.1631 -84.2767 297° West 339 390 26,000  Level Jacksonville Center
Fri 09:11:29 AM 29.2036 -84.3769 295° West 339 390 26,000  Level Jacksonville Center
Fri 09:12:29 AM 29.2339 -84.4561 294° West 339 390 26,000  Level Jacksonville Center
Fri 09:13:29 AM 29.2806 -84.5686 295° West 339 390 26,000  Level Jacksonville Center
Fri 09:14:29 AM 29.3211 -84.6694 295° West 339 390 26,000  Level Jacksonville Center
Fri 09:15:29 AM 29.3614 -84.7700 295° West 339 390 26,000  Level Jacksonville Center
Fri 09:16:29 AM 29.4014 -84.8711 294° West 339 390 26,000  Level Jacksonville Center
Fri 09:17:29 AM 29.4397 -84.9694 294° West 339 390 26,000  Level Jacksonville Center
Fri 09:18:29 AM 29.4819 -85.0683 296° West 339 390 26,000  Level Jacksonville Center
Fri 09:19:29 AM 29.5217 -85.1694 294° West 339 390 26,000  Level Jacksonville Center
Fri 09:20:29 AM 29.5617 -85.2706 294° West 339 390 26,000  Level Jacksonville Center
Fri 09:21:29 AM 29.6017 -85.3694 295° West 339 390 26,000  Level Jacksonville Center
Fri 09:22:29 AM 29.6414 -85.4683 295° West 339 390 26,000  Level Jacksonville Center
Fri 09:23:29 AM 29.6811 -85.5700 294° West 339 390 26,000  Level Jacksonville Center
Fri 09:24:29 AM 29.7186 -85.6689 294° West 339 390 26,000  Level Jacksonville Center
Fri 09:25:29 AM 29.7581 -85.7681 295° West 339 390 26,000  Level Jacksonville Center
Fri 09:26:29 AM 29.7975 -85.8675 295° West 339 390 26,000  Level Jacksonville Center
Fri 09:27:29 AM 29.8369 -85.9692 294° West 339 390 26,000  Level Jacksonville Center
Fri 09:28:29 AM 29.8803 -86.0783 295° West 339 390 26,000  Level Jacksonville Center
Fri 09:29:29 AM 29.9233 -86.1878 294° West 355 409 26,000  Level Jacksonville Center
Fri 09:30:29 AM 29.9583 -86.2847 293° West 361 415 26,000  Level Jacksonville Center
Fri 09:31:29 AM 29.9975 -86.3867 294° West 361 415 26,000  Level Jacksonville Center
Fri 09:32:29 AM 30.0364 -86.4867 294° West 355 409 26,000  Level Jacksonville Center
Fri 09:33:29 AM 30.0753 -86.5889 294° West 350 403 26,000  Level Jacksonville Center
Fri 09:34:29 AM 30.1161 -86.6889 295° West 344 396 26,000  Level Jacksonville Center
Fri 09:35:29 AM 30.1528 -86.7864 294° West 339 390 26,000  Level Jacksonville Center
Fri 09:36:29 AM 30.1894 -86.8864 293° West 339 390 26,000  Level Jacksonville Center
Fri 09:36:41 AM 30.1967 -86.9178 285° West 341 392 26,000  Level Jacksonville Center
Fri 09:37:12 AM 30.2161 -86.9667 295° West 341 392 26,000 -125 Level Jacksonville Center
Fri 09:37:29 AM 30.2261 -86.9792 313° West 339 390 25,900 -984 Descending Jacksonville Center
Fri 09:38:13 AM 30.2564 -87.0717 291° West 348 400 25,000 -1,000 Descending Jacksonville Center
Fri 09:38:29 AM 30.2644 -87.0817 313° West 339 390 24,900 -1,000 Descending Jacksonville Center
Fri 09:39:13 AM 30.2822 -87.1786 282° West 342 394 24,000 -900 Descending Jacksonville Center
Fri 09:39:29 AM 30.2861 -87.1861 301° West 339 390 24,000 -1,377 Level Jacksonville Center
Fri 09:40:14 AM 30.2847 -87.2847 269° West 323 372 22,600 -1,600 Descending Jacksonville Center
Fri 09:40:29 AM 30.2886 -87.2944 295° West 328 377 22,400 -2,066 Descending Jacksonville Center
Fri 09:41:15 AM 30.2917 -87.3861 272° West 324 373 20,500 -2,100 Descending Jacksonville Center
Fri 09:41:29 AM 30.2956 -87.3981 291° West 333 383 20,300 -1,865 Descending Jacksonville Center
Fri 09:42:29 AM 30.2981 -87.5017 272° West 333 383 18,200 -1,800 Descending Jacksonville Center
Fri 09:43:29 AM 30.3006 -87.6006 272° West 328 377 16,700 -1,700 Descending Jacksonville Center
Fri 09:44:29 AM 30.3472 -87.6817 304° West 309 356 14,800 -1,869 Descending Houston Center
Fri 09:45:31 AM 30.3950 -87.7617 305° West 305 351 12,900 -1,984 Descending Houston Center
Fri 09:46:33 AM 30.4408 -87.8372 305° West 293 337 10,700 -2,323 Descending Houston Center
Fri 09:47:35 AM 30.5114 -87.9042 321° Northwest 293 337 8,100 -2,323 Descending Houston Center
Fri 09:48:37 AM 30.5733 -87.9403 333° Northwest 257 296 5,900 -1,887 Descending Houston Center
Fri 09:49:39 AM 30.6272 -87.9792 328° Northwest 236 272 4,200 -871 Descending Houston Center
Fri 09:50:41 AM 30.6711 -88.0231 319° Northwest 214 246 4,100 -97 Descending Houston Center
Fri 09:51:43 AM 30.7181 -88.0672 321° Northwest 214 246 4,000 -48 Descending Houston Center
Fri 09:52:45 AM 30.7650 -88.1122 321° Northwest 217 250 4,000 -145 Level Houston Center
Fri 09:53:47 AM 30.8242 -88.1689 321° Northwest 225 259 3,700 -726 Descending Houston Center
Fri 09:54:49 AM 30.8606 -88.2167 312° West 213 245 2,500 -871 Descending Houston Center
Fri 09:55:51 AM 30.8817 -88.2753 293° West 203 234 1,900 -290 Descending Houston Center
Fri 09:56:53 AM 30.8589 -88.3164 237° Southwest 174 200 1,900 -48 Level Houston Center
Fri 09:57:55 AM 30.8239 -88.3506 220° Southwest 179 206 1,800 -48 Descending Houston Center
Fri 09:58:57 AM 30.7831 -88.3183 146° Southeast 183 211 1,800 -242 Level Houston Center
Fri 09:59:59 AM 30.7475 -88.2908 146° Southeast 168 193 1,300 -576 Descending Houston Center
Fri 10:01:02 AM 30.7158 -88.2644 144° Southeast 135 155 600 -432 Descending Houston Center
Fri 10:02:04 AM 30.6883 -88.2414 144° Southeast 132 152 400 -194 Descending Houston Center

Login

Don't have an account? Register now (free) for customized features, flight alerts, and more!